createdAt,value
2019-04-10T00:00:08.581Z,98425.79
2019-04-10T00:10:09.743Z,98422.41
2019-04-10T00:20:10.602Z,98431.80
2019-04-10T00:30:11.849Z,98436.73
2019-04-10T00:40:12.786Z,98428.35
2019-04-10T00:50:14.436Z,98425.08
2019-04-10T01:00:19.121Z,98429.16
2019-04-10T01:10:20.053Z,98423.48
2019-04-10T01:20:21.696Z,98412.05
2019-04-10T01:30:22.544Z,98405.09
2019-04-10T01:40:23.450Z,98401.74
2019-04-10T01:50:24.374Z,98412.33
2019-04-10T02:00:25.757Z,98399.07
2019-04-10T02:10:27.921Z,98394.56
2019-04-10T02:20:29.179Z,98395.22
2019-04-10T02:30:30.602Z,98398.45
2019-04-10T02:40:33.244Z,98396.05
2019-04-10T02:50:35.439Z,98404.91
2019-04-10T03:00:37.835Z,98420.45
2019-04-10T03:10:44.169Z,98413.33
2019-04-10T03:20:42.596Z,98415.70
2019-04-10T03:30:44.351Z,98420.67
2019-04-10T03:40:46.053Z,98420.14
2019-04-10T03:50:47.929Z,98407.50
2019-04-10T04:00:48.773Z,98413.05
2019-04-10T04:10:49.449Z,98415.97
2019-04-10T04:20:50.985Z,98411.30
2019-04-10T04:30:53.335Z,98416.48
2019-04-10T04:40:54.851Z,98414.64
2019-04-10T04:50:56.688Z,98422.08
2019-04-10T05:00:58.585Z,98426.25
2019-04-10T05:11:00.160Z,98428.67
2019-04-10T05:21:01.127Z,98448.23
2019-04-10T05:31:03.113Z,98459.42
2019-04-10T05:41:04.775Z,98477.85
2019-04-10T05:51:07.897Z,98491.59
2019-04-10T06:01:09.484Z,98500.30
2019-04-10T06:11:10.747Z,98510.86
2019-04-10T06:21:12.585Z,98522.11
2019-04-10T06:31:14.658Z,98524.09
2019-04-10T06:41:17.360Z,98515.23
2019-04-10T06:51:19.788Z,98519.89
2019-04-10T07:01:23.207Z,98525.38
2019-04-10T07:11:29.178Z,98536.24
2019-04-10T07:21:30.095Z,98537.61
2019-04-10T07:31:34.005Z,98542.16
2019-04-10T07:41:33.388Z,98544.95
2019-04-10T07:51:34.424Z,98548.02
2019-04-10T08:01:35.516Z,98560.98
2019-04-10T08:11:36.630Z,98562.68
2019-04-10T08:21:38.080Z,98565.02
2019-04-10T08:31:39.667Z,98570.87
2019-04-10T08:41:41.610Z,98563.33
2019-04-10T08:51:43.646Z,98567.37
2019-04-10T09:01:45.212Z,98578.05
2019-04-10T09:11:46.174Z,98586.84
2019-04-10T09:21:47.913Z,98591.13
2019-04-10T09:31:50.313Z,98583.75
2019-04-10T09:41:52.330Z,98581.20
2019-04-10T09:51:54.294Z,98587.28
2019-04-10T10:01:56.333Z,98586.00
2019-04-10T10:11:58.954Z,98578.52
2019-04-10T10:22:05.101Z,98585.33
2019-04-10T10:32:08.715Z,98573.47
2019-04-10T10:42:11.646Z,98585.61
2019-04-10T10:52:17.497Z,98569.55
2019-04-10T11:02:19.562Z,98573.48
2019-04-10T11:12:20.353Z,98583.75
2019-04-10T11:22:22.982Z,98582.17
2019-04-10T11:32:24.113Z,98582.95
2019-04-10T11:42:26.407Z,98575.06
2019-04-10T11:52:33.805Z,98577.25
2019-04-10T12:02:34.374Z,98585.13
2019-04-10T12:12:33.490Z,98585.88
2019-04-10T12:22:34.374Z,98591.21
2019-04-10T12:32:35.287Z,98593.11
2019-04-10T12:42:36.561Z,98592.84
2019-04-10T12:52:37.317Z,98590.72
2019-04-10T13:02:38.631Z,98601.25
2019-04-10T13:12:39.744Z,98606.62
2019-04-10T13:22:40.510Z,98591.13
2019-04-10T13:32:42.319Z,98594.13
2019-04-10T13:42:43.364Z,98598.42
2019-04-10T13:52:44.654Z,98601.35
2019-04-10T14:02:45.774Z,98589.03
2019-04-10T14:12:47.855Z,98601.36
2019-04-10T14:22:50.237Z,98602.03
2019-04-10T14:32:51.534Z,98609.53
2019-04-10T14:42:53.476Z,98611.05
2019-04-10T14:52:54.617Z,98614.90
2019-04-10T15:02:55.918Z,98627.62
2019-04-10T15:13:07.388Z,98629.80
2019-04-10T15:23:00.851Z,98629.73
2019-04-10T15:33:03.160Z,98635.81
2019-04-10T15:43:04.867Z,98641.63
2019-04-10T15:53:09.681Z,98643.58
2019-04-10T16:03:09.653Z,98647.09
2019-04-10T16:13:10.580Z,98647.86
2019-04-10T16:23:12.255Z,98654.66
2019-04-10T16:33:13.185Z,98663.06
2019-04-10T16:43:13.996Z,98678.48
2019-04-10T16:53:16.022Z,98678.48
2019-04-10T17:03:17.769Z,98680.09
2019-04-10T17:13:18.514Z,98691.23
2019-04-10T17:23:20.582Z,98698.17
2019-04-10T17:33:21.714Z,98699.91
2019-04-10T17:43:23.290Z,98711.98
2019-04-10T17:53:25.255Z,98715.02
2019-04-10T18:03:40.518Z,98736.27
2019-04-10T18:13:28.926Z,98742.08
2019-04-10T18:23:29.649Z,98757.96
2019-04-10T18:33:30.983Z,98780.83
2019-04-10T18:43:32.009Z,98798.31
2019-04-10T18:53:33.105Z,98815.26
2019-04-10T19:03:45.218Z,98831.69
2019-04-10T19:13:36.864Z,98847.16
2019-04-10T19:23:37.928Z,98853.28
2019-04-10T19:33:41.521Z,98869.68
2019-04-10T19:43:42.619Z,98883.24
2019-04-10T19:53:43.686Z,98893.70
2019-04-10T20:03:45.780Z,98900.97
2019-04-10T20:13:47.199Z,98914.16
2019-04-10T20:23:48.144Z,98918.33
2019-04-10T20:33:49.670Z,98922.60
2019-04-10T20:43:51.199Z,98938.72
2019-04-10T20:53:52.612Z,98942.64
2019-04-10T21:03:53.501Z,98967.30
2019-04-10T21:13:54.567Z,98976.37
2019-04-10T21:23:56.461Z,98983.15
2019-04-10T21:33:58.731Z,98988.67
2019-04-10T21:44:00.342Z,99000.23
2019-04-10T21:54:02.237Z,99013.11
2019-04-10T22:04:03.037Z,99010.67
2019-04-10T22:14:04.509Z,99014.94
2019-04-10T22:24:05.702Z,99023.69
2019-04-10T22:34:07.392Z,99032.08
2019-04-10T22:44:08.094Z,99033.91
2019-04-10T22:54:10.154Z,99043.95
2019-04-10T23:04:12.221Z,99043.90
2019-04-10T23:14:14.491Z,99041.06
2019-04-10T23:24:15.742Z,99054.28
2019-04-10T23:34:16.833Z,99059.89
2019-04-10T23:44:18.529Z,99066.92
2019-04-10T23:54:19.582Z,99063.19
